Time;durP1;ratioP1;P1;durP2;ratioP2;P2;SDS_P1;SDS_P2;PMS_P1;PMS_P2;Temp;Humidity;BMP_temperature;BMP_pressure;BME280_temperature;BME280_humidity;BME280_pressure;Samples;Min_cycle;Max_cycle;Signal;HPM_P1;HPM_P2
2022/01/09 00:04:54;;;;;;;6.23;4.40;;;17.20;62.90;;;;;;10456661;28;20228;-67
2022/01/09 00:10:17;;;;;;;7.23;4.67;;;17.20;62.90;;;;;;10457722;28;20557;-66
2022/01/09 00:15:41;;;;;;;6.37;4.70;;;17.10;62.70;;;;;;10457348;28;20790;-67
2022/01/09 00:21:06;;;;;;;6.17;4.23;;;17.20;62.90;;;;;;10456896;28;20252;-67
2022/01/09 00:26:28;;;;;;;7.13;4.10;;;17.20;63.00;;;;;;10436377;28;20204;-67
2022/01/09 00:31:51;;;;;;;5.67;4.10;;;17.20;62.90;;;;;;10416491;28;20225;-67
2022/01/09 00:37:13;;;;;;;6.37;4.40;;;17.20;62.90;;;;;;10416955;28;20566;-67
2022/01/09 00:42:35;;;;;;;5.73;3.70;;;17.20;62.80;;;;;;10417157;28;20216;-67
2022/01/09 00:47:59;;;;;;;5.73;4.20;;;17.20;62.90;;;;;;10451345;28;20197;-66
2022/01/09 00:53:21;;;;;;;6.20;3.57;;;17.10;62.70;;;;;;10456261;28;20228;-67
2022/01/09 00:58:43;;;;;;;5.40;3.57;;;17.20;62.90;;;;;;10456661;28;20224;-67
2022/01/09 01:04:06;;;;;;;4.93;3.67;;;17.20;62.80;;;;;;10455613;28;20232;-67
2022/01/09 01:09:31;;;;;;;4.70;3.60;;;17.10;62.80;;;;;;10454364;28;20201;-67
2022/01/09 01:14:53;;;;;;;4.90;3.60;;;17.20;62.80;;;;;;10455309;28;20722;-67
2022/01/09 01:20:20;;;;;;;4.93;3.53;;;17.10;62.80;;;;;;10455199;28;20216;-67
2022/01/09 01:25:44;;;;;;;4.93;3.50;;;17.10;62.80;;;;;;10455016;28;20279;-67
2022/01/09 01:31:07;;;;;;;5.40;3.63;;;17.20;62.90;;;;;;10454808;28;20700;-67
2022/01/09 01:36:30;;;;;;;5.13;3.63;;;17.10;62.90;;;;;;10453862;28;20197;-67
2022/01/09 01:41:52;;;;;;;4.10;3.03;;;17.10;62.80;;;;;;10453978;28;20217;-67
2022/01/09 01:47:17;;;;;;;5.13;3.43;;;17.10;62.80;;;;;;10449970;28;20204;-67
2022/01/09 01:52:45;;;;;;;4.67;3.13;;;17.10;62.80;;;;;;10454064;28;20235;-67
2022/01/09 01:58:10;;;;;;;4.07;3.07;;;17.20;62.90;;;;;;10453239;28;20209;-67
2022/01/09 02:03:32;;;;;;;4.30;3.30;;;17.10;62.80;;;;;;10475737;22;20715;-67
2022/01/09 02:08:56;;;;;;;5.33;3.50;;;17.10;62.90;;;;;;10452782;28;20599;-66
2022/01/09 02:14:18;;;;;;;3.93;3.20;;;17.10;62.90;;;;;;10439516;28;20225;-67
2022/01/09 02:19:50;;;;;;;3.63;2.90;;;17.10;62.90;;;;;;10452780;28;20298;-67
2022/01/09 02:25:14;;;;;;;3.57;2.73;;;17.20;62.80;;;;;;10441000;28;20723;-66
2022/01/09 02:30:36;;;;;;;4.17;2.83;;;17.10;62.80;;;;;;10409976;28;20201;-67
2022/01/09 02:35:59;;;;;;;3.20;2.37;;;17.10;62.80;;;;;;10439071;28;20593;-67
2022/01/09 02:41:21;;;;;;;3.47;2.57;;;17.10;62.70;;;;;;10449394;28;20213;-67
2022/01/09 02:46:55;;;;;;;3.23;2.60;;;17.10;62.80;;;;;;10412572;28;20201;-67
2022/01/09 02:52:30;;;;;;;4.10;2.87;;;17.10;62.80;;;;;;10422792;28;20593;-66
2022/01/09 02:57:54;;;;;;;3.57;2.27;;;17.10;62.80;;;;;;10433190;28;20206;-66
2022/01/09 03:03:16;;;;;;;2.93;2.40;;;17.10;62.90;;;;;;10409192;28;20221;-66
2022/01/09 03:08:39;;;;;;;3.00;2.40;;;17.10;62.90;;;;;;10409977;28;20677;-66
2022/01/09 03:14:01;;;;;;;2.63;2.10;;;17.10;62.80;;;;;;10413418;28;20205;-66
2022/01/09 03:19:23;;;;;;;3.00;2.57;;;17.10;62.80;;;;;;10443076;28;20282;-66
2022/01/09 03:24:47;;;;;;;2.63;2.33;;;17.10;62.90;;;;;;10431185;28;20553;-66
2022/01/09 03:30:10;;;;;;;3.37;2.40;;;17.10;62.80;;;;;;10449875;28;20247;-66
2022/01/09 03:35:33;;;;;;;2.67;2.20;;;17.10;62.90;;;;;;10409286;28;20245;-67
2022/01/09 03:40:56;;;;;;;3.60;1.83;;;17.10;62.90;;;;;;10419282;28;20226;-67
2022/01/09 03:46:19;;;;;;;2.37;2.00;;;17.10;62.80;;;;;;10423649;28;20209;-67
2022/01/09 03:51:44;;;;;;;2.67;2.10;;;17.10;62.90;;;;;;10451205;28;20217;-67
2022/01/09 03:57:07;;;;;;;2.63;1.90;;;17.10;62.90;;;;;;10416292;28;20202;-67
2022/01/09 04:02:29;;;;;;;2.93;1.90;;;17.10;62.80;;;;;;10416736;28;20222;-67
2022/01/09 04:07:52;;;;;;;2.90;1.80;;;17.10;63.00;;;;;;10417412;28;20190;-67
2022/01/09 04:13:15;;;;;;;3.13;2.20;;;17.10;62.90;;;;;;10416489;28;20217;-67
2022/01/09 04:18:37;;;;;;;2.40;1.80;;;17.10;62.90;;;;;;10416577;28;20222;-67
2022/01/09 04:24:00;;;;;;;1.97;1.77;;;17.10;62.80;;;;;;10416770;28;20224;-66
2022/01/09 04:29:23;;;;;;;2.30;2.03;;;17.10;62.90;;;;;;10457432;28;20623;-67
2022/01/09 04:34:45;;;;;;;2.37;1.77;;;17.10;62.90;;;;;;10443451;28;20218;-67
2022/01/09 04:40:11;;;;;;;3.30;2.00;;;17.10;62.90;;;;;;10414952;28;20228;-67
2022/01/09 04:45:35;;;;;;;2.17;1.80;;;17.00;63.40;;;;;;10419486;28;20691;-67
2022/01/09 04:50:58;;;;;;;1.90;1.67;;;17.10;62.90;;;;;;10455263;28;20200;-67
2022/01/09 04:56:20;;;;;;;1.80;1.50;;;17.00;62.90;;;;;;10456484;28;20204;-67
2022/01/09 05:01:44;;;;;;;2.30;1.60;;;17.10;63.00;;;;;;10455402;28;20225;-66
2022/01/09 05:07:06;;;;;;;2.67;1.80;;;17.00;62.90;;;;;;10452924;28;20830;-67
2022/01/09 05:12:28;;;;;;;2.27;1.60;;;17.00;62.90;;;;;;10414973;28;20220;-66
2022/01/09 05:17:57;;;;;;;1.97;1.33;;;17.00;62.90;;;;;;10414385;28;20190;-67
2022/01/09 05:23:19;;;;;;;1.53;1.30;;;17.10;62.90;;;;;;10421823;28;20218;-67
2022/01/09 05:28:42;;;;;;;2.43;1.57;;;17.10;62.90;;;;;;10452389;28;20193;-66
2022/01/09 05:34:05;;;;;;;2.43;1.60;;;17.10;62.90;;;;;;10455976;28;20216;-67
2022/01/09 05:39:28;;;;;;;1.63;1.40;;;17.00;62.90;;;;;;10433129;28;20221;-67
2022/01/09 05:44:50;;;;;;;1.83;1.43;;;17.00;63.00;;;;;;10421188;28;20703;-67
2022/01/09 05:50:14;;;;;;;2.53;1.53;;;17.10;63.00;;;;;;10451078;28;20195;-66
2022/01/09 05:55:36;;;;;;;1.50;1.10;;;17.10;63.00;;;;;;10419531;28;20220;-67
2022/01/09 06:00:58;;;;;;;1.80;1.27;;;17.00;62.90;;;;;;10444571;28;20224;-66
2022/01/09 06:06:21;;;;;;;1.73;1.30;;;17.00;62.90;;;;;;10453590;28;20668;-66
2022/01/09 06:11:44;;;;;;;1.93;1.50;;;17.00;63.00;;;;;;10452741;28;20209;-66
2022/01/09 06:17:06;;;;;;;1.80;1.20;;;17.00;62.90;;;;;;10411895;28;20553;-67
2022/01/09 06:22:29;;;;;;;2.00;1.40;;;17.00;62.90;;;;;;10412312;28;20307;-67
2022/01/09 06:27:51;;;;;;;1.70;1.03;;;17.10;63.00;;;;;;10443886;28;20204;-66
2022/01/09 06:33:14;;;;;;;1.33;1.00;;;17.10;63.00;;;;;;10451876;28;20237;-66
2022/01/09 06:38:38;;;;;;;1.40;1.10;;;17.10;63.00;;;;;;10452583;28;20212;-66
2022/01/09 06:44:00;;;;;;;1.80;1.20;;;17.10;62.90;;;;;;10416302;28;20743;-67
2022/01/09 06:49:22;;;;;;;1.80;1.10;;;17.10;62.90;;;;;;10443778;28;20196;-66
2022/01/09 06:54:46;;;;;;;1.80;1.17;;;17.10;62.90;;;;;;10412383;28;20220;-66
2022/01/09 07:00:10;;;;;;;1.73;1.17;;;17.10;63.00;;;;;;10411246;28;20224;-67
2022/01/09 07:05:32;;;;;;;1.40;0.97;;;17.10;63.00;;;;;;10410622;28;20232;-67
2022/01/09 07:10:55;;;;;;;1.60;1.27;;;17.10;62.90;;;;;;10410749;28;20573;-67
2022/01/09 07:16:17;;;;;;;0.93;0.87;;;17.10;62.90;;;;;;10411114;28;20202;-66
2022/01/09 07:21:40;;;;;;;1.73;1.17;;;17.10;63.00;;;;;;10409749;28;20218;-67
2022/01/09 07:27:03;;;;;;;1.30;1.10;;;17.10;63.60;;;;;;10420043;28;20197;-67
2022/01/09 07:32:25;;;;;;;1.50;1.10;;;17.10;63.00;;;;;;10410874;28;20213;-66
2022/01/09 07:37:47;;;;;;;1.37;0.80;;;17.10;63.00;;;;;;10410044;28;20218;-66
2022/01/09 07:43:11;;;;;;;1.07;0.83;;;17.10;63.00;;;;;;10408666;28;20246;-67
2022/01/09 07:48:34;;;;;;;1.27;0.80;;;17.10;63.00;;;;;;10410484;28;20209;-66
2022/01/09 07:53:56;;;;;;;0.83;0.83;;;17.10;63.00;;;;;;10411387;28;20213;-67
2022/01/09 07:59:19;;;;;;;0.83;0.67;;;17.10;63.00;;;;;;10417092;28;20596;-66
2022/01/09 08:04:42;;;;;;;1.00;0.87;;;17.10;63.40;;;;;;10440853;22;20232;-66
2022/01/09 08:10:04;;;;;;;1.50;1.10;;;17.10;62.90;;;;;;10449671;28;20194;-67
2022/01/09 08:15:28;;;;;;;1.40;1.17;;;17.10;62.80;;;;;;10442673;28;20705;-67
2022/01/09 08:20:50;;;;;;;1.73;1.00;;;17.10;62.90;;;;;;10408120;28;20221;-67
2022/01/09 08:26:12;;;;;;;6.67;4.10;;;17.10;62.90;;;;;;10433025;28;20223;-68
2022/01/09 08:31:36;;;;;;;12.43;7.57;;;17.10;63.00;;;;;;10427969;28;20203;-66
2022/01/09 08:36:58;;;;;;;18.13;10.77;;;17.10;62.90;;;;;;10414426;28;20193;-67
2022/01/09 08:42:20;;;;;;;16.40;11.33;;;17.10;62.90;;;;;;10415081;28;20222;-66
2022/01/09 08:47:44;;;;;;;17.87;11.60;;;17.10;63.00;;;;;;10431989;28;20196;-67
2022/01/09 08:53:06;;;;;;;16.80;11.20;;;17.10;63.00;;;;;;10410837;28;20699;-66
2022/01/09 08:58:30;;;;;;;13.80;8.77;;;17.10;63.00;;;;;;10433254;28;20255;-67
2022/01/09 09:03:53;;;;;;;13.83;9.17;;;17.10;63.00;;;;;;10441335;28;20602;-67
2022/01/09 09:09:15;;;;;;;11.80;8.43;;;17.10;63.20;;;;;;10415668;28;20194;-67
2022/01/09 09:14:38;;;;;;;14.00;8.80;;;17.10;63.40;;;;;;10415002;28;20230;-67
2022/01/09 09:20:01;;;;;;;14.03;9.53;;;17.10;63.20;;;;;;10419638;28;20221;-67
2022/01/09 09:25:24;;;;;;;13.47;8.90;;;17.10;63.20;;;;;;10429648;28;20229;-67
2022/01/09 09:30:46;;;;;;;11.67;8.37;;;17.10;63.20;;;;;;10373201;28;20189;-67
2022/01/09 09:36:09;;;;;;;13.60;8.60;;;17.10;63.10;;;;;;10372686;28;20218;-65
2022/01/09 09:41:31;;;;;;;9.83;7.00;;;17.10;63.10;;;;;;10372925;28;20218;-67
2022/01/09 09:46:54;;;;;;;10.93;7.30;;;17.10;63.20;;;;;;10422898;28;20198;-66
2022/01/09 09:52:18;;;;;;;18.13;8.33;;;17.10;63.10;;;;;;10453945;28;20259;-66
2022/01/09 09:57:41;;;;;;;16.40;7.27;;;17.10;63.30;;;;;;10411875;28;20212;-67
2022/01/09 10:03:04;;;;;;;10.70;7.03;;;17.10;63.40;;;;;;10414114;28;20232;-67
2022/01/09 10:08:37;;;;;;;10.00;6.30;;;17.20;62.60;;;;;;10415954;28;20554;-67
2022/01/09 10:14:12;;;;;;;8.70;6.13;;;17.20;62.70;;;;;;10401751;28;20222;-67
2022/01/09 10:19:46;;;;;;;10.07;6.67;;;17.20;63.10;;;;;;10410033;28;20692;-67
2022/01/09 10:25:25;;;;;;;11.67;6.30;;;17.20;63.30;;;;;;10409773;28;20225;-67
2022/01/09 10:30:50;;;;;;;10.50;5.53;;;17.20;63.30;;;;;;10410131;28;20201;-67
2022/01/09 10:36:31;;;;;;;8.73;5.53;;;17.10;63.40;;;;;;10402440;28;20221;-68
2022/01/09 10:41:58;;;;;;;9.90;5.40;;;17.20;63.50;;;;;;10412213;28;20246;-68
2022/01/09 10:47:20;;;;;;;8.07;5.23;;;17.10;63.60;;;;;;10408296;28;20220;-67
2022/01/09 10:52:43;;;;;;;8.50;5.07;;;17.10;63.60;;;;;;10408924;28;20284;-67
2022/01/09 10:58:17;;;;;;;9.30;5.43;;;17.20;63.90;;;;;;10410192;28;20327;-67
2022/01/09 11:03:40;;;;;;;7.40;4.87;;;17.20;63.90;;;;;;10405679;28;20959;-68
2022/01/09 11:09:04;;;;;;;6.30;4.50;;;17.20;64.00;;;;;;10412453;28;20212;-68
2022/01/09 11:14:29;;;;;;;9.63;5.83;;;17.20;64.00;;;;;;10410551;28;20312;-69
2022/01/09 11:19:51;;;;;;;9.33;5.20;;;17.20;64.00;;;;;;10408355;28;20229;-68
2022/01/09 11:25:25;;;;;;;8.70;5.23;;;17.20;63.90;;;;;;10410248;28;20235;-67
2022/01/09 11:30:58;;;;;;;8.17;4.90;;;17.20;63.80;;;;;;10406649;28;20680;-67
2022/01/09 11:36:28;;;;;;;10.13;5.53;;;17.20;63.80;;;;;;10407671;28;20221;-67
2022/01/09 11:42:08;;;;;;;8.37;5.27;;;17.20;63.80;;;;;;10406112;28;20228;-71
2022/01/09 11:47:49;;;;;;;8.37;4.27;;;17.20;63.80;;;;;;10405331;28;20718;-68
2022/01/09 11:53:11;;;;;;;6.53;3.50;;;17.20;62.40;;;;;;10404755;28;20218;-68
2022/01/09 11:58:33;;;;;;;6.00;3.87;;;17.20;63.30;;;;;;10410122;28;20190;-71
2022/01/09 12:03:56;;;;;;;6.13;3.60;;;17.30;63.40;;;;;;10425168;28;20732;-71
2022/01/09 12:09:31;;;;;;;5.50;3.40;;;17.40;63.40;;;;;;10416558;28;20197;-70
2022/01/09 12:14:56;;;;;;;5.97;3.70;;;17.50;63.20;;;;;;10414426;28;20500;-71
2022/01/09 12:20:28;;;;;;;4.60;3.10;;;17.60;63.30;;;;;;10415856;28;20214;-69
2022/01/09 12:25:54;;;;;;;4.30;2.67;;;17.70;63.80;;;;;;10417759;28;20214;-68
2022/01/09 12:31:28;;;;;;;5.47;2.67;;;17.70;64.00;;;;;;10402592;28;20201;-70
2022/01/09 12:36:56;;;;;;;6.97;3.40;;;17.80;64.20;;;;;;10415916;28;20197;-70
2022/01/09 12:42:18;;;;;;;5.00;2.70;;;17.80;64.30;;;;;;10414940;28;20224;-69
2022/01/09 12:47:40;;;;;;;6.63;2.97;;;17.80;64.50;;;;;;10424272;28;20202;-69
2022/01/09 12:53:18;;;;;;;3.73;2.40;;;17.80;64.60;;;;;;10413605;28;20220;-69
2022/01/09 12:58:42;;;;;;;4.83;2.40;;;17.80;64.50;;;;;;10415111;28;20205;-69
2022/01/09 13:04:10;;;;;;;5.47;2.70;;;17.80;64.80;;;;;;10415826;28;20229;-69
2022/01/09 13:09:33;;;;;;;3.57;2.10;;;17.80;64.70;;;;;;10419129;28;20194;-69
2022/01/09 13:14:55;;;;;;;4.00;2.23;;;17.80;64.70;;;;;;10413021;28;20224;-69
2022/01/09 13:20:19;;;;;;;3.33;1.97;;;17.80;64.80;;;;;;10428978;28;20438;-70
2022/01/09 13:25:43;;;;;;;3.20;2.07;;;17.80;63.80;;;;;;10422382;28;20245;-68
2022/01/09 13:31:06;;;;;;;3.17;1.97;;;17.80;64.00;;;;;;10418288;28;20198;-69
2022/01/09 13:36:33;;;;;;;3.17;1.90;;;17.80;64.00;;;;;;10410635;28;20392;-68
2022/01/09 13:42:03;;;;;;;4.20;2.30;;;17.70;64.00;;;;;;10413088;28;20217;-68
2022/01/09 13:47:27;;;;;;;4.03;2.07;;;17.70;64.00;;;;;;10423005;28;20201;-68
2022/01/09 13:52:50;;;;;;;2.83;1.70;;;17.70;64.10;;;;;;10412251;28;20214;-68
2022/01/09 13:58:18;;;;;;;3.97;2.10;;;17.70;64.20;;;;;;10412269;28;20581;-69
2022/01/09 14:03:40;;;;;;;2.73;1.63;;;17.70;64.40;;;;;;10445404;22;20232;-65
2022/01/09 14:09:02;;;;;;;3.30;1.80;;;17.60;64.40;;;;;;10455092;28;20203;-64
2022/01/09 14:14:30;;;;;;;3.13;1.73;;;17.60;64.40;;;;;;10446685;28;20221;-64
2022/01/09 14:19:53;;;;;;;3.30;1.80;;;17.60;64.50;;;;;;10422529;28;20772;-65
2022/01/09 14:25:17;;;;;;;5.20;2.00;;;17.60;64.70;;;;;;10400181;28;20228;-64
2022/01/09 14:30:42;;;;;;;3.43;1.60;;;17.60;64.80;;;;;;10424610;28;20217;-65
2022/01/09 14:36:10;;;;;;;5.23;1.97;;;17.60;64.80;;;;;;10414084;28;20688;-64
2022/01/09 14:41:34;;;;;;;3.57;1.67;;;17.60;64.80;;;;;;10431338;28;20240;-65
2022/01/09 14:46:57;;;;;;;3.80;1.50;;;17.60;64.80;;;;;;10412336;28;20726;-64
2022/01/09 14:52:19;;;;;;;4.55;1.90;;;17.60;64.90;;;;;;10430922;28;20436;-65
2022/01/09 14:57:41;;;;;;;3.13;1.87;;;18.20;62.50;;;;;;10427753;28;20201;-65
2022/01/09 15:03:05;;;;;;;3.70;1.93;;;17.80;63.80;;;;;;10429257;28;20724;-65
2022/01/09 15:08:27;;;;;;;3.77;1.80;;;17.70;64.40;;;;;;10431886;28;20204;-64
2022/01/09 15:13:50;;;;;;;3.87;1.73;;;17.60;64.50;;;;;;10420870;28;20213;-65
2022/01/09 15:19:13;;;;;;;4.53;1.40;;;17.60;64.60;;;;;;10428401;28;20201;-65
2022/01/09 15:24:35;;;;;;;4.13;2.07;;;17.60;64.70;;;;;;10428334;28;20704;-65
2022/01/09 15:29:58;;;;;;;3.70;1.60;;;17.60;64.80;;;;;;10424740;28;20204;-65
2022/01/09 15:35:22;;;;;;;3.67;1.90;;;17.60;64.90;;;;;;10427074;28;20306;-66
2022/01/09 15:40:45;;;;;;;4.27;1.73;;;17.60;64.90;;;;;;10434609;28;20228;-65
2022/01/09 15:46:07;;;;;;;4.43;1.97;;;17.60;64.90;;;;;;10427975;28;20251;-65
2022/01/09 15:51:30;;;;;;;1.83;1.40;;;17.60;65.00;;;;;;10419607;28;20234;-65
2022/01/09 15:56:52;;;;;;;2.80;1.33;;;17.60;64.90;;;;;;10431656;28;20307;-65
2022/01/09 16:02:14;;;;;;;3.77;1.40;;;17.60;65.00;;;;;;10408985;28;20220;-65
2022/01/09 16:07:38;;;;;;;1.67;1.40;;;17.50;64.90;;;;;;10426311;28;20577;-65
2022/01/09 16:13:00;;;;;;;2.83;1.43;;;17.50;64.90;;;;;;10427667;28;20213;-65
2022/01/09 16:18:22;;;;;;;3.27;1.77;;;17.50;65.00;;;;;;10433668;28;20205;-65
2022/01/09 16:23:48;;;;;;;3.07;1.40;;;17.50;65.00;;;;;;10421451;28;20221;-65
2022/01/09 16:29:14;;;;;;;1.80;1.20;;;17.50;65.00;;;;;;10425449;28;20198;-65
2022/01/09 16:34:36;;;;;;;2.33;1.47;;;17.50;64.90;;;;;;10424426;28;20214;-65
2022/01/09 16:39:59;;;;;;;2.30;1.40;;;17.50;64.90;;;;;;10416417;28;20691;-65
2022/01/09 16:45:22;;;;;;;1.80;1.33;;;17.50;64.90;;;;;;10411556;28;20209;-65
2022/01/09 16:50:45;;;;;;;4.47;1.87;;;17.50;64.90;;;;;;10418464;28;20205;-64
2022/01/09 16:56:10;;;;;;;2.80;1.33;;;17.50;64.80;;;;;;10424836;28;20217;-65
2022/01/09 17:01:36;;;;;;;2.43;1.20;;;17.50;64.80;;;;;;10407926;28;20224;-64
2022/01/09 17:06:58;;;;;;;1.83;1.30;;;17.60;64.80;;;;;;10415092;28;20237;-64
2022/01/09 17:12:22;;;;;;;2.23;1.30;;;17.60;64.80;;;;;;10417447;28;20680;-65
2022/01/09 17:17:45;;;;;;;2.40;1.30;;;17.50;64.70;;;;;;10417907;28;20214;-65
2022/01/09 17:23:08;;;;;;;2.93;1.40;;;17.50;64.80;;;;;;10417692;28;20233;-64
2022/01/09 17:28:33;;;;;;;2.20;1.10;;;17.50;64.70;;;;;;10416684;28;20280;-65
2022/01/09 17:33:55;;;;;;;1.70;1.10;;;17.50;64.70;;;;;;10424470;28;20292;-65
2022/01/09 17:39:17;;;;;;;3.30;1.20;;;17.50;64.70;;;;;;10414167;28;20680;-65
2022/01/09 17:44:41;;;;;;;5.07;1.40;;;17.50;64.70;;;;;;10402813;28;20222;-65
2022/01/09 17:50:05;;;;;;;1.50;1.03;;;17.50;64.70;;;;;;10415042;28;20209;-65
2022/01/09 17:55:27;;;;;;;2.33;1.50;;;17.50;64.70;;;;;;10399636;28;20248;-65
2022/01/09 18:00:50;;;;;;;1.93;1.10;;;17.50;64.70;;;;;;10414168;28;20232;-65
2022/01/09 18:06:19;;;;;;;2.00;1.27;;;17.50;64.60;;;;;;10414124;28;20609;-64
2022/01/09 18:11:43;;;;;;;2.63;1.17;;;17.50;64.60;;;;;;10438419;28;20791;-65
2022/01/09 18:17:06;;;;;;;2.97;1.23;;;17.50;64.60;;;;;;10449338;28;20680;-64
2022/01/09 18:22:28;;;;;;;2.33;1.40;;;17.50;64.60;;;;;;10449555;28;20589;-64
2022/01/09 18:27:50;;;;;;;2.37;1.43;;;17.50;64.70;;;;;;10447914;28;20201;-65
2022/01/09 18:33:14;;;;;;;3.53;1.20;;;17.50;64.60;;;;;;10440311;28;20232;-65
2022/01/09 18:38:36;;;;;;;2.17;1.37;;;17.50;64.60;;;;;;10427390;28;20267;-65
2022/01/09 18:43:58;;;;;;;2.07;1.30;;;17.50;64.60;;;;;;10447225;28;20712;-65
2022/01/09 18:49:22;;;;;;;2.30;1.57;;;17.50;64.60;;;;;;10446081;28;20205;-65
2022/01/09 18:54:44;;;;;;;2.20;1.40;;;17.50;64.60;;;;;;10442254;28;20593;-65
2022/01/09 19:00:08;;;;;;;4.23;1.80;;;17.50;64.60;;;;;;10444577;28;20209;-64
2022/01/09 19:05:32;;;;;;;2.47;1.40;;;17.60;64.60;;;;;;10442105;28;20232;-65
2022/01/09 19:10:54;;;;;;;2.90;1.47;;;17.60;64.70;;;;;;10438351;28;20604;-65
2022/01/09 19:16:16;;;;;;;2.60;1.33;;;17.50;64.60;;;;;;10441486;28;20227;-64
2022/01/09 19:21:40;;;;;;;3.10;1.13;;;17.50;64.60;;;;;;10417726;28;20220;-65
2022/01/09 19:27:02;;;;;;;2.17;1.23;;;17.50;64.60;;;;;;10432612;28;20220;-67
2022/01/09 19:32:24;;;;;;;2.03;1.40;;;17.60;64.70;;;;;;10408250;28;20220;-67
2022/01/09 19:37:47;;;;;;;2.00;1.43;;;17.50;64.60;;;;;;10383418;28;20205;-67
2022/01/09 19:43:09;;;;;;;2.70;1.43;;;17.50;64.80;;;;;;10369271;28;20222;-67
2022/01/09 19:48:32;;;;;;;2.53;1.30;;;17.50;64.90;;;;;;10385539;28;20198;-65
2022/01/09 19:53:57;;;;;;;2.40;1.23;;;17.40;64.90;;;;;;10409073;28;20272;-65
2022/01/09 19:59:19;;;;;;;3.93;1.57;;;17.40;64.90;;;;;;10411821;28;20205;-68
2022/01/09 20:04:41;;;;;;;2.00;1.40;;;17.50;64.90;;;;;;10426712;23;20709;-63
2022/01/09 20:10:10;;;;;;;3.43;1.73;;;17.40;64.80;;;;;;10440817;28;20205;-63
2022/01/09 20:15:33;;;;;;;2.23;1.27;;;17.40;64.60;;;;;;10431088;28;20225;-63
2022/01/09 20:20:55;;;;;;;2.97;1.33;;;17.40;64.60;;;;;;10432812;28;20193;-63
2022/01/09 20:26:19;;;;;;;2.53;1.30;;;17.40;64.50;;;;;;10448721;28;20291;-63
2022/01/09 20:31:41;;;;;;;2.07;1.03;;;17.40;64.40;;;;;;10442509;28;20661;-64
2022/01/09 20:37:04;;;;;;;2.93;1.30;;;17.40;65.00;;;;;;10443652;28;20216;-64
2022/01/09 20:42:27;;;;;;;4.70;1.40;;;17.40;64.40;;;;;;10442470;28;20216;-62
2022/01/09 20:47:49;;;;;;;2.07;1.30;;;17.40;64.40;;;;;;10441242;28;20209;-64
2022/01/09 20:53:12;;;;;;;2.07;1.30;;;17.40;64.30;;;;;;10442940;28;20543;-64
2022/01/09 20:58:36;;;;;;;1.13;0.93;;;17.40;64.40;;;;;;10441504;28;20189;-63
2022/01/09 21:03:58;;;;;;;1.93;1.13;;;17.40;64.40;;;;;;10441674;28;20224;-64
2022/01/09 21:09:20;;;;;;;2.80;1.20;;;17.40;64.40;;;;;;10453740;28;20264;-63
2022/01/09 21:14:48;;;;;;;2.83;1.13;;;17.40;64.30;;;;;;10445577;28;20205;-63
2022/01/09 21:20:10;;;;;;;2.27;1.37;;;17.40;64.40;;;;;;10444071;28;20198;-65
2022/01/09 21:25:33;;;;;;;1.37;1.10;;;17.40;64.40;;;;;;10457356;28;20217;-64
2022/01/09 21:30:57;;;;;;;2.43;1.40;;;17.40;64.30;;;;;;10461038;28;20196;-65
2022/01/09 21:36:19;;;;;;;2.20;1.10;;;17.40;64.30;;;;;;10461309;28;20219;-65
2022/01/09 21:41:41;;;;;;;2.43;1.17;;;17.40;64.30;;;;;;10465700;28;20220;-65
2022/01/09 21:47:05;;;;;;;2.23;1.10;;;17.40;64.30;;;;;;10438699;28;20686;-65
2022/01/09 21:52:27;;;;;;;2.57;1.50;;;17.40;64.30;;;;;;10458871;28;20193;-64
2022/01/09 21:57:51;;;;;;;2.57;1.33;;;17.30;64.30;;;;;;10456848;28;20694;-65
2022/01/09 22:03:17;;;;;;;1.47;0.90;;;17.30;64.40;;;;;;10461570;28;20217;-65
2022/01/09 22:08:39;;;;;;;2.33;1.30;;;17.30;64.40;;;;;;10452518;28;20197;-64
2022/01/09 22:14:01;;;;;;;3.87;1.40;;;17.30;64.40;;;;;;10433024;28;20208;-63
2022/01/09 22:19:25;;;;;;;3.03;1.30;;;17.30;64.40;;;;;;10459009;28;20197;-63
2022/01/09 22:24:48;;;;;;;1.43;1.00;;;17.30;64.40;;;;;;10451831;28;20220;-62
2022/01/09 22:30:11;;;;;;;2.53;1.20;;;17.30;64.40;;;;;;10451297;28;20205;-63
2022/01/09 22:35:34;;;;;;;2.63;1.10;;;17.30;64.40;;;;;;10413394;28;20216;-63
2022/01/09 22:40:57;;;;;;;2.20;1.37;;;17.30;64.40;;;;;;10409661;28;20193;-64
2022/01/09 22:46:19;;;;;;;2.37;1.00;;;17.30;64.40;;;;;;10409270;28;20205;-62
2022/01/09 22:51:42;;;;;;;1.90;1.10;;;17.30;64.40;;;;;;10409112;28;20198;-60
2022/01/09 22:57:07;;;;;;;1.93;1.10;;;17.30;64.40;;;;;;10425373;28;20228;-59
2022/01/09 23:02:29;;;;;;;1.90;1.10;;;17.30;64.40;;;;;;10426335;28;20220;-62
2022/01/09 23:07:52;;;;;;;2.90;1.30;;;17.30;64.40;;;;;;10450747;28;20686;-62
2022/01/09 23:13:14;;;;;;;2.57;1.17;;;17.30;64.40;;;;;;10476637;28;20192;-63
2022/01/09 23:18:36;;;;;;;3.10;1.33;;;17.30;64.40;;;;;;10490408;28;20219;-62
2022/01/09 23:24:00;;;;;;;1.60;0.90;;;17.30;64.40;;;;;;10491312;28;20720;-61
2022/01/09 23:29:22;;;;;;;4.27;1.30;;;17.30;64.30;;;;;;10449196;28;20675;-61
2022/01/09 23:34:44;;;;;;;1.57;0.90;;;17.30;64.40;;;;;;10449500;28;20213;-62
2022/01/09 23:40:11;;;;;;;2.93;1.20;;;17.30;64.40;;;;;;10422596;28;20204;-62
2022/01/09 23:45:38;;;;;;;2.23;1.00;;;17.30;64.40;;;;;;10449214;28;20213;-62
2022/01/09 23:51:00;;;;;;;1.63;1.03;;;17.20;64.40;;;;;;10448404;28;20282;-59
2022/01/09 23:56:24;;;;;;;1.73;0.80;;;17.20;64.30;;;;;;10455070;28;20709;-60
